KDCY

Daviess County Airport

Washington, Indiana, USA
METAR KDCY 220715Z AUTO 36006KT 10SM CLR 18/11 A3017 RMK AO2 T01770107
Observed Flight Rules
Sep-22 @ 07:15 UTC (24 minutes ago) Visual Flight Rules
Wind Visibility Clouds
360° at 6 knots 10 miles
Temperatures Readings
Current 18°C / 64°F
Dewpoint 11°C / 52°F
Humidity 64%
Altimeter 30.17" Hg
Pressure 1022 hPa
Elevation 144
METAR KDCY 220715Z AUTO 36006KT 10SM CLR 18/11 A3017 RMK AO2 T01770107
Observed Flight Rules
Sep-22 @ 07:15 UTC
(24 minutes ago)
VFR
Wind Visibility
360° at 6 knots 10 miles
Clouds
Temperature Dewpoint
18°C / 64°F 11°C / 52°F
Humidity Altimeter Pressure
64% 30.17" Hg 1022 hPa